Time;durP1;ratioP1;P1;durP2;ratioP2;P2;SDS_P1;SDS_P2;PMS_P1;PMS_P2;Temp;Humidity;BMP_temperature;BMP_pressure;BME280_temperature;BME280_humidity;BME280_pressure;Samples;Min_cycle;Max_cycle;Signal;HPM_P1;HPM_P2
2022/05/11 00:01:21;;;;;;;20.23;18.23;;;;;;;;;;5011273;28;20033;-69
2022/05/11 00:03:46;;;;;;;20.15;18.35;;;;;;;;;;5007543;28;20080;-69
2022/05/11 00:06:12;;;;;;;19.92;18.20;;;;;;;;;;5008225;28;20041;-69
2022/05/11 00:08:38;;;;;;;20.55;18.70;;;;;;;;;;5008339;28;20065;-69
2022/05/11 00:11:04;;;;;;;21.40;19.15;;;;;;;;;;5010406;28;20042;-70
2022/05/11 00:13:31;;;;;;;21.45;19.30;;;;;;;;;;5007537;28;20157;-70
2022/05/11 00:15:57;;;;;;;20.88;18.85;;;;;;;;;;5008015;28;20041;-69
2022/05/11 00:18:22;;;;;;;22.60;20.33;;;;;;;;;;5007854;28;20040;-68
2022/05/11 00:20:48;;;;;;;22.48;20.33;;;;;;;;;;5013562;28;20021;-69
2022/05/11 00:23:14;;;;;;;22.10;20.10;;;;;;;;;;5014450;28;20040;-69
2022/05/11 00:25:39;;;;;;;22.95;20.95;;;;;;;;;;5015693;28;20045;-68
2022/05/11 00:28:05;;;;;;;22.98;20.80;;;;;;;;;;5019178;28;20821;-69
2022/05/11 00:30:31;;;;;;;21.42;19.40;;;;;;;;;;5009762;28;20392;-68
2022/05/11 00:32:59;;;;;;;21.15;19.15;;;;;;;;;;5009384;28;20044;-68
2022/05/11 00:35:27;;;;;;;22.48;20.13;;;;;;;;;;5009349;28;20064;-69
2022/05/11 00:37:53;;;;;;;21.38;19.33;;;;;;;;;;5008504;28;20125;-69
2022/05/11 00:40:20;;;;;;;20.50;18.67;;;;;;;;;;5010085;28;20520;-70
2022/05/11 00:42:46;;;;;;;20.30;18.60;;;;;;;;;;5008007;28;20212;-69
2022/05/11 00:45:12;;;;;;;21.25;19.48;;;;;;;;;;5009021;28;20398;-69
2022/05/11 00:47:41;;;;;;;22.13;20.23;;;;;;;;;;5010641;28;20072;-70
2022/05/11 00:50:18;;;;;;;20.42;18.63;;;;;;;;;;5004711;28;20034;-69
2022/05/11 00:52:51;;;;;;;21.77;19.85;;;;;;;;;;5007147;28;20064;-69
2022/05/11 00:55:24;;;;;;;21.33;19.30;;;;;;;;;;5016034;28;20041;-69
2022/05/11 00:58:01;;;;;;;23.40;20.00;;;;;;;;;;5012321;28;20117;-69
2022/05/11 01:00:27;;;;;;;21.38;19.58;;;;;;;;;;5007169;28;20045;-69
2022/05/11 01:03:03;;;;;;;21.58;19.48;;;;;;;;;;5010127;28;20084;-69
2022/05/11 01:05:30;;;;;;;22.17;20.17;;;;;;;;;;5009487;28;20037;-70
2022/05/11 01:07:57;;;;;;;21.75;19.83;;;;;;;;;;5005249;28;20563;-70
2022/05/11 01:10:25;;;;;;;23.00;20.83;;;;;;;;;;5007841;28;20041;-69
2022/05/11 01:12:56;;;;;;;22.73;20.63;;;;;;;;;;5011701;28;20077;-69
2022/05/11 01:15:24;;;;;;;23.30;21.00;;;;;;;;;;5004255;28;20497;-70
2022/05/11 01:17:50;;;;;;;23.95;21.67;;;;;;;;;;5013019;28;20401;-69
2022/05/11 01:20:19;;;;;;;22.48;20.27;;;;;;;;;;5008913;28;20037;-70
2022/05/11 01:23:06;;;;;;;22.65;20.65;;;;;;;;;;5016290;28;20063;-69
2022/05/11 01:25:32;;;;;;;22.20;20.02;;;;;;;;;;5017299;28;20033;-69
2022/05/11 01:28:04;;;;;;;21.25;19.38;;;;;;;;;;5012668;28;20056;-69
2022/05/11 01:30:31;;;;;;;19.88;18.20;;;;;;;;;;5008987;28;20042;-69
2022/05/11 01:32:56;;;;;;;20.17;18.33;;;;;;;;;;5011348;28;20591;-70
2022/05/11 01:35:27;;;;;;;19.90;18.20;;;;;;;;;;5010561;28;20079;-69
2022/05/11 01:38:39;;;;;;;20.40;18.35;;;;;;;;;;5015224;28;20029;-70
2022/05/11 01:41:05;;;;;;;20.42;18.48;;;;;;;;;;4984283;28;20469;-70
2022/05/11 01:43:33;;;;;;;20.67;18.58;;;;;;;;;;4982788;28;20050;-69
2022/05/11 01:45:59;;;;;;;19.73;18.13;;;;;;;;;;4986072;28;20803;-71
2022/05/11 01:48:26;;;;;;;20.65;19.00;;;;;;;;;;4984529;28;20043;-70
2022/05/11 01:50:52;;;;;;;20.67;18.88;;;;;;;;;;4984540;28;20090;-70
2022/05/11 01:53:18;;;;;;;20.10;18.20;;;;;;;;;;4978783;28;20588;-69
2022/05/11 01:55:44;;;;;;;20.25;17.98;;;;;;;;;;4995889;28;20072;-69
2022/05/11 01:58:14;;;;;;;22.40;20.38;;;;;;;;;;4987955;28;20116;-69
2022/05/11 02:00:42;;;;;;;22.92;20.63;;;;;;;;;;4981721;28;20766;-69
2022/05/11 02:03:08;;;;;;;22.93;20.83;;;;;;;;;;4983922;28;20417;-69
2022/05/11 02:08:18;;;;;;;22.25;20.13;;;;;;;;;;4984567;28;20042;-69
2022/05/11 02:10:44;;;;;;;22.33;20.15;;;;;;;;;;4982622;28;20069;-69
2022/05/11 02:13:10;;;;;;;23.30;21.02;;;;;;;;;;4982445;28;20050;-69
2022/05/11 02:15:36;;;;;;;23.80;21.50;;;;;;;;;;4992881;28;20082;-69
2022/05/11 02:18:03;;;;;;;24.23;21.92;;;;;;;;;;5007473;28;20034;-69
2022/05/11 02:20:29;;;;;;;21.75;19.77;;;;;;;;;;5005329;28;20441;-70
2022/05/11 02:22:55;;;;;;;21.02;19.10;;;;;;;;;;5014413;28;20037;-69
2022/05/11 02:25:21;;;;;;;21.10;19.20;;;;;;;;;;5014679;28;20045;-69
2022/05/11 02:27:48;;;;;;;20.80;18.90;;;;;;;;;;5007259;28;20073;-69
2022/05/11 02:30:26;;;;;;;21.92;19.75;;;;;;;;;;5002753;28;20073;-69
2022/05/11 02:32:53;;;;;;;20.30;18.63;;;;;;;;;;5013026;28;20051;-69
2022/05/11 02:35:20;;;;;;;20.60;18.90;;;;;;;;;;5010344;28;20492;-69
2022/05/11 02:37:55;;;;;;;21.20;19.30;;;;;;;;;;5009008;28;20042;-69
2022/05/11 02:40:32;;;;;;;20.02;18.33;;;;;;;;;;5006108;28;20084;-69
2022/05/11 02:43:01;;;;;;;20.33;18.33;;;;;;;;;;5014195;28;20040;-70
2022/05/11 02:45:27;;;;;;;20.95;19.10;;;;;;;;;;5007392;28;20113;-69
2022/05/11 02:47:54;;;;;;;20.23;18.55;;;;;;;;;;5008893;28;20028;-70
2022/05/11 02:50:24;;;;;;;20.27;18.48;;;;;;;;;;5001768;28;20082;-69
2022/05/11 02:52:49;;;;;;;20.05;18.25;;;;;;;;;;5006737;28;20038;-69
2022/05/11 02:55:15;;;;;;;20.63;18.58;;;;;;;;;;5009362;28;20045;-69
2022/05/11 02:57:41;;;;;;;21.05;19.17;;;;;;;;;;5007957;28;20100;-69
2022/05/11 03:00:09;;;;;;;20.65;18.70;;;;;;;;;;5007652;28;20120;-69
2022/05/11 03:02:35;;;;;;;21.13;19.17;;;;;;;;;;5018830;28;20037;-69
2022/05/11 03:05:02;;;;;;;21.90;20.08;;;;;;;;;;5015435;28;20616;-69
2022/05/11 03:07:27;;;;;;;22.08;20.05;;;;;;;;;;5007413;28;20034;-70
2022/05/11 03:09:53;;;;;;;22.92;20.88;;;;;;;;;;5006891;28;20063;-69
2022/05/11 03:12:22;;;;;;;21.88;20.08;;;;;;;;;;5008577;28;20124;-68
2022/05/11 03:14:49;;;;;;;22.92;20.85;;;;;;;;;;5009000;28;20040;-69
2022/05/11 03:17:15;;;;;;;23.02;20.83;;;;;;;;;;5010330;28;20544;-69
2022/05/11 03:19:41;;;;;;;22.23;19.92;;;;;;;;;;5005083;28;20493;-69
2022/05/11 03:22:06;;;;;;;21.88;19.98;;;;;;;;;;5010139;28;20033;-69
2022/05/11 03:24:32;;;;;;;22.63;20.50;;;;;;;;;;5018990;28;20033;-68
2022/05/11 03:26:58;;;;;;;21.10;19.30;;;;;;;;;;5011861;28;20179;-69
2022/05/11 03:29:23;;;;;;;22.02;19.88;;;;;;;;;;5005665;28;20018;-69
2022/05/11 03:34:37;;;;;;;22.05;19.90;;;;;;;;;;5010720;28;20034;-68
2022/05/11 03:37:07;;;;;;;;;;;;;;;;;;5014782;28;20037;-68
2022/05/11 03:39:33;;;;;;;21.58;19.73;;;;;;;;;;5003889;28;19914;-68
2022/05/11 03:41:59;;;;;;;21.10;19.00;;;;;;;;;;5006667;28;20116;-69
2022/05/11 03:44:26;;;;;;;21.42;19.52;;;;;;;;;;5007971;28;20037;-68
2022/05/11 03:46:52;;;;;;;21.10;19.30;;;;;;;;;;5007184;28;20037;-68
2022/05/11 03:49:17;;;;;;;20.83;18.75;;;;;;;;;;5008922;28;20120;-69
2022/05/11 03:51:44;;;;;;;20.70;18.98;;;;;;;;;;5010895;28;20124;-69
2022/05/11 03:54:09;;;;;;;20.55;18.80;;;;;;;;;;5015305;28;20536;-68
2022/05/11 03:56:35;;;;;;;21.30;19.40;;;;;;;;;;5017858;28;20218;-69
2022/05/11 03:59:01;;;;;;;21.60;19.70;;;;;;;;;;5010775;28;20473;-68
2022/05/11 04:01:26;;;;;;;21.15;19.20;;;;;;;;;;5016440;28;20090;-68
2022/05/11 04:03:52;;;;;;;21.60;19.60;;;;;;;;;;5016089;28;20025;-68
2022/05/11 04:06:18;;;;;;;20.80;18.80;;;;;;;;;;5011681;28;20037;-68
2022/05/11 04:08:43;;;;;;;20.52;18.65;;;;;;;;;;5010684;28;20026;-68
2022/05/11 04:11:11;;;;;;;19.88;18.00;;;;;;;;;;5009155;28;20038;-68
2022/05/11 04:13:36;;;;;;;20.50;18.08;;;;;;;;;;5016444;28;20497;-68
2022/05/11 04:16:02;;;;;;;19.75;18.08;;;;;;;;;;5011533;28;20041;-68
2022/05/11 04:18:27;;;;;;;20.00;18.35;;;;;;;;;;5010419;28;20539;-68
2022/05/11 04:20:53;;;;;;;21.45;19.65;;;;;;;;;;5012324;28;20397;-68
2022/05/11 04:23:19;;;;;;;20.08;18.35;;;;;;;;;;5014055;28;20485;-69
2022/05/11 04:25:44;;;;;;;20.98;19.20;;;;;;;;;;5017841;28;20519;-68
2022/05/11 04:28:12;;;;;;;20.25;18.45;;;;;;;;;;5009675;28;20100;-68
2022/05/11 04:30:39;;;;;;;20.40;18.60;;;;;;;;;;5010566;28;20041;-68
2022/05/11 04:33:06;;;;;;;21.42;19.73;;;;;;;;;;5012373;28;20030;-68
2022/05/11 04:35:34;;;;;;;20.95;19.08;;;;;;;;;;5011744;28;20038;-68
2022/05/11 04:38:01;;;;;;;21.02;19.27;;;;;;;;;;5009710;28;20034;-68
2022/05/11 04:40:28;;;;;;;21.20;19.38;;;;;;;;;;5007818;28;20508;-68
2022/05/11 04:42:54;;;;;;;20.95;18.98;;;;;;;;;;5008601;28;20038;-68
2022/05/11 04:45:20;;;;;;;19.92;18.27;;;;;;;;;;5009980;28;20413;-68
2022/05/11 04:47:46;;;;;;;19.70;18.00;;;;;;;;;;5008002;28;20615;-68
2022/05/11 04:50:14;;;;;;;20.05;18.25;;;;;;;;;;5010721;28;20117;-68
2022/05/11 04:52:40;;;;;;;20.48;18.77;;;;;;;;;;5016838;28;20042;-68
2022/05/11 04:55:09;;;;;;;20.20;18.55;;;;;;;;;;5013346;28;20040;-68
2022/05/11 04:57:35;;;;;;;20.33;18.73;;;;;;;;;;5012996;28;20079;-68
2022/05/11 05:00:03;;;;;;;20.38;18.67;;;;;;;;;;5013665;28;20021;-68
2022/05/11 05:02:29;;;;;;;19.73;17.95;;;;;;;;;;5008182;28;20148;-68
2022/05/11 05:04:59;;;;;;;19.80;18.15;;;;;;;;;;5008960;28;20489;-68
2022/05/11 05:07:25;;;;;;;19.65;17.83;;;;;;;;;;5011122;28;20037;-68
2022/05/11 05:09:51;;;;;;;19.77;18.17;;;;;;;;;;5012090;28;20524;-68
2022/05/11 05:12:17;;;;;;;19.52;18.02;;;;;;;;;;5012179;28;20045;-68
2022/05/11 05:14:43;;;;;;;20.27;18.38;;;;;;;;;;5011916;28;20034;-68
2022/05/11 05:17:11;;;;;;;18.80;17.38;;;;;;;;;;5010934;28;20073;-69
2022/05/11 05:19:39;;;;;;;18.48;16.98;;;;;;;;;;5008833;28;20477;-68
2022/05/11 05:22:05;;;;;;;19.02;17.52;;;;;;;;;;5010092;28;20123;-69
2022/05/11 05:24:31;;;;;;;19.00;17.45;;;;;;;;;;5016783;28;20239;-68
2022/05/11 05:26:57;;;;;;;17.80;16.40;;;;;;;;;;5016648;28;20041;-68
2022/05/11 05:32:08;;;;;;;18.00;16.63;;;;;;;;;;5018883;28;20408;-67
2022/05/11 05:34:34;;;;;;;18.08;16.67;;;;;;;;;;5010363;28;20034;-69
2022/05/11 05:37:00;;;;;;;17.83;16.35;;;;;;;;;;5017124;28;20034;-69
2022/05/11 05:39:26;;;;;;;16.98;15.55;;;;;;;;;;5013667;28;20032;-68
2022/05/11 05:41:52;;;;;;;18.00;16.70;;;;;;;;;;5011061;28;20532;-68
2022/05/11 05:44:18;;;;;;;16.77;15.45;;;;;;;;;;5014013;28;20044;-68
2022/05/11 05:46:45;;;;;;;17.42;16.17;;;;;;;;;;5008045;28;20037;-68
2022/05/11 05:49:12;;;;;;;18.23;16.52;;;;;;;;;;5009139;28;20120;-68
2022/05/11 05:51:39;;;;;;;17.95;16.45;;;;;;;;;;5006059;28;20377;-69
2022/05/11 05:54:06;;;;;;;17.45;15.95;;;;;;;;;;5016712;28;20037;-68
2022/05/11 05:56:32;;;;;;;17.65;16.35;;;;;;;;;;5013405;28;20033;-68
2022/05/11 05:59:03;;;;;;;17.08;15.65;;;;;;;;;;5004865;28;20050;-68
2022/05/11 06:01:29;;;;;;;18.80;17.10;;;;;;;;;;5008359;28;20033;-69
2022/05/11 06:03:54;;;;;;;19.05;16.77;;;;;;;;;;5002039;28;20405;-68
2022/05/11 06:06:21;;;;;;;18.70;17.00;;;;;;;;;;5008534;28;20608;-68
2022/05/11 06:08:46;;;;;;;18.38;16.60;;;;;;;;;;5005000;28;20026;-69
2022/05/11 06:11:12;;;;;;;17.02;15.70;;;;;;;;;;5008284;28;20048;-68
2022/05/11 06:13:39;;;;;;;17.65;16.13;;;;;;;;;;5010498;28;20044;-69
2022/05/11 06:16:10;;;;;;;18.13;16.73;;;;;;;;;;5008051;28;20033;-68
2022/05/11 06:18:36;;;;;;;17.63;16.13;;;;;;;;;;5007640;28;20026;-68
2022/05/11 06:21:03;;;;;;;17.40;15.55;;;;;;;;;;5009013;28;20065;-69
2022/05/11 06:23:28;;;;;;;17.48;16.08;;;;;;;;;;5016678;28;20033;-68
2022/05/11 06:25:54;;;;;;;18.90;17.08;;;;;;;;;;5014461;28;20099;-68
2022/05/11 06:28:21;;;;;;;17.35;15.98;;;;;;;;;;5012963;28;20100;-68
2022/05/11 06:30:47;;;;;;;16.92;15.63;;;;;;;;;;5006573;28;20111;-69
2022/05/11 06:33:13;;;;;;;17.08;15.75;;;;;;;;;;5006081;28;20493;-68
2022/05/11 06:35:39;;;;;;;16.88;15.73;;;;;;;;;;5012603;28;20044;-68
2022/05/11 06:38:07;;;;;;;16.98;15.43;;;;;;;;;;5017149;28;20385;-68
2022/05/11 06:40:33;;;;;;;16.80;15.20;;;;;;;;;;5007987;28;20067;-68
2022/05/11 06:43:01;;;;;;;15.95;14.75;;;;;;;;;;5008119;28;20029;-68
2022/05/11 06:45:28;;;;;;;16.02;14.90;;;;;;;;;;5011453;28;20046;-68
2022/05/11 06:47:54;;;;;;;15.80;14.60;;;;;;;;;;5007768;28;20164;-68
2022/05/11 06:50:21;;;;;;;15.93;14.77;;;;;;;;;;5005964;28;20544;-68
2022/05/11 06:52:46;;;;;;;16.52;15.10;;;;;;;;;;5009885;28;20505;-68
2022/05/11 07:00:42;;;;;;;15.82;14.23;;;;;;;;;;4998924;28;20049;-68
2022/05/11 07:03:08;;;;;;;15.25;13.98;;;;;;;;;;5007734;28;20040;-68
2022/05/11 07:05:35;;;;;;;15.70;14.43;;;;;;;;;;5008624;28;20042;-68
2022/05/11 07:08:01;;;;;;;15.88;14.57;;;;;;;;;;5013606;28;20503;-68
2022/05/11 07:10:27;;;;;;;15.57;13.93;;;;;;;;;;5014279;28;20516;-68
2022/05/11 07:12:53;;;;;;;15.18;14.00;;;;;;;;;;5006902;28;20120;-68
2022/05/11 07:15:21;;;;;;;15.90;14.68;;;;;;;;;;5008608;28;20168;-68
2022/05/11 07:18:13;;;;;;;15.30;14.20;;;;;;;;;;5005425;28;20037;-68
2022/05/11 07:20:39;;;;;;;15.52;14.43;;;;;;;;;;5004515;28;20687;-68
2022/05/11 07:23:06;;;;;;;15.30;13.85;;;;;;;;;;5010397;28;20030;-69
2022/05/11 07:25:33;;;;;;;14.70;13.57;;;;;;;;;;5020718;28;20037;-67
2022/05/11 07:27:59;;;;;;;14.88;13.40;;;;;;;;;;5008584;28;20067;-68
2022/05/11 07:30:34;;;;;;;13.57;12.63;;;;;;;;;;5012960;28;20128;-69
2022/05/11 07:33:01;;;;;;;14.77;13.55;;;;;;;;;;5010853;28;20077;-69
2022/05/11 07:35:28;;;;;;;15.18;13.85;;;;;;;;;;5012816;28;20042;-68
2022/05/11 07:37:54;;;;;;;15.50;14.10;;;;;;;;;;5014239;28;20404;-68
2022/05/11 07:40:21;;;;;;;14.48;13.38;;;;;;;;;;5016657;28;20037;-68
2022/05/11 07:42:47;;;;;;;14.50;13.25;;;;;;;;;;5012865;28;20079;-68
2022/05/11 07:45:14;;;;;;;13.65;12.75;;;;;;;;;;5012517;28;20033;-69
2022/05/11 07:47:40;;;;;;;13.27;12.38;;;;;;;;;;5014875;28;20052;-69
2022/05/11 07:50:13;;;;;;;13.23;12.23;;;;;;;;;;5016811;28;20055;-68
2022/05/11 07:52:40;;;;;;;12.93;11.93;;;;;;;;;;5015043;28;20488;-69
2022/05/11 07:55:06;;;;;;;12.85;11.75;;;;;;;;;;5016052;28;20072;-67
2022/05/11 08:00:16;;;;;;;12.52;11.55;;;;;;;;;;5011429;28;20402;-69
2022/05/11 08:02:42;;;;;;;13.63;12.52;;;;;;;;;;5019260;28;20030;-68
2022/05/11 08:05:13;;;;;;;13.57;12.50;;;;;;;;;;5017422;28;20064;-69
2022/05/11 08:07:45;;;;;;;13.15;12.13;;;;;;;;;;5013375;28;20116;-68
2022/05/11 08:10:21;;;;;;;12.70;11.90;;;;;;;;;;5011451;28;20222;-69
2022/05/11 08:12:47;;;;;;;13.02;12.05;;;;;;;;;;5007415;28;20030;-68
2022/05/11 08:15:15;;;;;;;13.23;12.23;;;;;;;;;;5013976;28;20455;-68
2022/05/11 08:17:42;;;;;;;13.40;12.48;;;;;;;;;;5011829;28;20052;-69
2022/05/11 08:20:14;;;;;;;12.60;11.75;;;;;;;;;;5020815;28;20037;-68
2022/05/11 08:22:45;;;;;;;13.10;12.20;;;;;;;;;;5019531;28;20443;-68
2022/05/11 08:25:12;;;;;;;13.27;12.05;;;;;;;;;;5016804;28;20077;-68
2022/05/11 08:27:39;;;;;;;12.15;10.98;;;;;;;;;;5012158;28;20033;-68
2022/05/11 08:35:34;;;;;;;12.60;11.70;;;;;;;;;;5010383;28;20096;-68
2022/05/11 08:37:59;;;;;;;12.90;12.00;;;;;;;;;;5014235;28;20045;-68
2022/05/11 08:40:34;;;;;;;13.00;11.85;;;;;;;;;;5015496;28;20034;-68
2022/05/11 08:43:02;;;;;;;12.25;11.50;;;;;;;;;;5012066;28;20070;-68
2022/05/11 08:45:39;;;;;;;11.73;10.98;;;;;;;;;;5012115;28;20408;-68
2022/05/11 08:48:09;;;;;;;12.05;11.15;;;;;;;;;;5014385;28;20041;-68
2022/05/11 08:50:37;;;;;;;12.15;11.25;;;;;;;;;;5011226;28;20088;-68
2022/05/11 08:53:21;;;;;;;11.77;11.05;;;;;;;;;;5013331;28;20034;-68
2022/05/11 08:55:50;;;;;;;11.50;10.70;;;;;;;;;;5016670;28;20041;-67
2022/05/11 08:58:18;;;;;;;;;;;;;;;;;;5016958;28;20514;-68
2022/05/11 09:00:44;;;;;;;11.27;10.57;;;;;;;;;;5013408;28;19959;-68
2022/05/11 09:03:31;;;;;;;11.00;10.20;;;;;;;;;;5014912;28;20492;-68
2022/05/11 09:05:58;;;;;;;12.68;11.07;;;;;;;;;;5014062;28;20037;-68
2022/05/11 09:08:25;;;;;;;11.48;10.77;;;;;;;;;;5010829;28;20030;-68
2022/05/11 09:10:50;;;;;;;12.40;11.52;;;;;;;;;;5011328;28;20050;-68
2022/05/11 09:13:18;;;;;;;11.95;10.93;;;;;;;;;;5003074;28;20030;-69
2022/05/11 09:15:55;;;;;;;11.93;11.13;;;;;;;;;;4989233;28;20519;-68
2022/05/11 09:18:32;;;;;;;11.48;10.68;;;;;;;;;;5012346;28;20088;-68
2022/05/11 09:21:01;;;;;;;12.27;11.20;;;;;;;;;;5008733;28;20038;-68
2022/05/11 09:23:34;;;;;;;11.82;10.93;;;;;;;;;;5012847;28;20480;-69
2022/05/11 09:26:03;;;;;;;11.98;11.15;;;;;;;;;;5010377;28;20450;-68
2022/05/11 09:28:33;;;;;;;11.90;11.00;;;;;;;;;;5006669;28;20061;-68
2022/05/11 09:31:12;;;;;;;12.52;10.50;;;;;;;;;;5014246;28;20191;-67
2022/05/11 09:33:57;;;;;;;11.98;11.10;;;;;;;;;;5002716;28;20038;-66
2022/05/11 09:36:36;;;;;;;11.50;10.70;;;;;;;;;;5006859;28;20134;-68
2022/05/11 09:39:19;;;;;;;12.25;11.32;;;;;;;;;;5011857;28;20033;-68
2022/05/11 09:41:51;;;;;;;11.98;10.98;;;;;;;;;;5014440;28;20037;-67
2022/05/11 09:44:26;;;;;;;11.00;10.30;;;;;;;;;;5004550;28;20174;-68
2022/05/11 09:46:53;;;;;;;11.77;10.88;;;;;;;;;;5011747;28;20571;-68
2022/05/11 09:49:19;;;;;;;11.50;10.70;;;;;;;;;;5007973;28;20026;-67
2022/05/11 09:51:50;;;;;;;16.08;12.02;;;;;;;;;;5008167;28;20405;-68
2022/05/11 09:54:32;;;;;;;11.40;10.50;;;;;;;;;;5015157;28;20049;-66
2022/05/11 09:57:00;;;;;;;11.65;10.85;;;;;;;;;;5009046;28;20410;-67
2022/05/11 09:59:49;;;;;;;11.18;10.48;;;;;;;;;;5003283;28;20034;-67
2022/05/11 10:02:37;;;;;;;11.07;10.20;;;;;;;;;;5006712;28;20668;-67
2022/05/11 10:05:24;;;;;;;11.00;10.23;;;;;;;;;;5004996;28;20030;-67
2022/05/11 10:08:15;;;;;;;10.50;9.73;;;;;;;;;;5001799;28;20041;-68
2022/05/11 10:10:59;;;;;;;11.25;10.38;;;;;;;;;;5005296;28;20046;-67
2022/05/11 10:13:43;;;;;;;11.55;10.43;;;;;;;;;;5006017;28;20045;-67
2022/05/11 10:22:23;;;;;;;12.00;11.00;;;;;;;;;;5007978;28;20136;-66
2022/05/11 10:25:16;;;;;;;10.50;9.70;;;;;;;;;;5009043;28;20046;-69
2022/05/11 10:27:46;;;;;;;11.20;10.40;;;;;;;;;;5006647;28;20547;-67
2022/05/11 10:30:28;;;;;;;12.43;11.38;;;;;;;;;;5008189;28;20048;-67
2022/05/11 10:33:09;;;;;;;11.35;10.65;;;;;;;;;;5007959;28;20042;-68
2022/05/11 10:36:06;;;;;;;11.10;10.15;;;;;;;;;;5009043;28;20030;-67
2022/05/11 10:39:14;;;;;;;11.57;10.30;;;;;;;;;;5010160;28;20509;-67
2022/05/11 10:41:51;;;;;;;11.55;10.65;;;;;;;;;;5006387;28;20034;-68
2022/05/11 10:44:32;;;;;;;10.90;10.20;;;;;;;;;;5005239;28;20034;-67
2022/05/11 10:47:07;;;;;;;11.05;10.23;;;;;;;;;;5006727;28;20034;-68
2022/05/11 10:49:44;;;;;;;11.13;10.43;;;;;;;;;;5007694;28;20041;-68
2022/05/11 10:52:28;;;;;;;11.23;10.43;;;;;;;;;;5006260;28;20405;-70
2022/05/11 10:55:26;;;;;;;10.93;10.02;;;;;;;;;;5010419;28;20033;-68
2022/05/11 10:58:10;;;;;;;11.80;11.00;;;;;;;;;;5007163;28;20092;-67
2022/05/11 11:00:43;;;;;;;11.82;10.77;;;;;;;;;;5008207;28;20065;-68
2022/05/11 11:03:33;;;;;;;11.95;11.18;;;;;;;;;;5003261;28;20040;-67
2022/05/11 11:09:24;;;;;;;11.10;10.32;;;;;;;;;;5010154;28;20104;-67
2022/05/11 11:12:06;;;;;;;11.32;10.52;;;;;;;;;;5009990;28;20409;-67
2022/05/11 11:14:37;;;;;;;11.00;10.27;;;;;;;;;;5008242;28;20112;-68
2022/05/11 11:17:05;;;;;;;12.07;11.05;;;;;;;;;;5008959;28;20030;-68
2022/05/11 11:19:32;;;;;;;10.82;10.02;;;;;;;;;;5011307;28;20029;-68
2022/05/11 11:22:00;;;;;;;10.98;10.27;;;;;;;;;;5007191;28;20061;-69
2022/05/11 11:24:28;;;;;;;11.25;10.50;;;;;;;;;;5009943;28;20120;-67
2022/05/11 11:26:57;;;;;;;11.02;10.05;;;;;;;;;;5010875;28;20273;-68
2022/05/11 11:29:33;;;;;;;11.02;10.20;;;;;;;;;;5007306;28;20038;-68
2022/05/11 11:32:04;;;;;;;11.45;10.55;;;;;;;;;;5010770;28;20045;-67
2022/05/11 11:34:32;;;;;;;12.55;11.38;;;;;;;;;;5009573;28;20062;-67
2022/05/11 11:36:59;;;;;;;11.88;10.93;;;;;;;;;;5009668;28;20038;-67
2022/05/11 11:39:52;;;;;;;11.75;10.93;;;;;;;;;;5016996;28;20113;-67
2022/05/11 11:42:32;;;;;;;11.20;10.32;;;;;;;;;;5013029;28;20124;-67
2022/05/11 11:44:58;;;;;;;11.88;11.07;;;;;;;;;;5007755;28;20045;-68
2022/05/11 11:47:26;;;;;;;11.43;10.70;;;;;;;;;;5007419;28;20428;-67
2022/05/11 11:49:58;;;;;;;10.70;10.00;;;;;;;;;;5010405;28;20058;-68
2022/05/11 11:52:40;;;;;;;11.05;10.32;;;;;;;;;;5011829;28;20041;-68
2022/05/11 11:55:28;;;;;;;11.52;10.63;;;;;;;;;;5024450;28;20064;-68
2022/05/11 11:58:25;;;;;;;11.70;10.73;;;;;;;;;;5016727;28;20113;-68
2022/05/11 12:00:57;;;;;;;11.93;11.13;;;;;;;;;;5007659;28;20057;-68
2022/05/11 12:03:26;;;;;;;11.07;10.27;;;;;;;;;;5011099;28;20046;-68
2022/05/11 12:17:05;;;;;;;11.85;11.00;;;;;;;;;;5006744;28;20044;-68
2022/05/11 12:19:33;;;;;;;12.20;11.13;;;;;;;;;;5007011;28;20029;-68
2022/05/11 12:21:59;;;;;;;;;;;;;;;;;;5009313;28;20571;-68
2022/05/11 12:24:39;;;;;;;12.35;11.52;;;;;;;;;;5019537;28;19917;-68
2022/05/11 12:27:27;;;;;;;11.82;10.93;;;;;;;;;;5006000;28;20564;-68
2022/05/11 12:29:59;;;;;;;11.73;10.73;;;;;;;;;;5006348;28;20042;-68
2022/05/11 12:32:30;;;;;;;12.57;11.68;;;;;;;;;;5008755;28;20037;-68
2022/05/11 12:34:58;;;;;;;12.10;11.10;;;;;;;;;;5006049;28;20480;-68
2022/05/11 12:37:32;;;;;;;12.20;11.40;;;;;;;;;;5007493;28;20084;-68
2022/05/11 12:40:02;;;;;;;12.80;11.70;;;;;;;;;;5008102;28;20478;-67
2022/05/11 12:42:31;;;;;;;12.15;11.38;;;;;;;;;;5007375;28;20050;-67
2022/05/11 12:44:57;;;;;;;12.65;11.65;;;;;;;;;;5015313;28;20098;-67
2022/05/11 12:47:24;;;;;;;11.80;11.10;;;;;;;;;;5012867;28;20069;-67
2022/05/11 12:49:50;;;;;;;11.73;11.03;;;;;;;;;;5007922;28;20049;-67
2022/05/11 12:52:17;;;;;;;11.40;10.60;;;;;;;;;;5008993;28;20041;-68
2022/05/11 12:54:58;;;;;;;12.63;11.63;;;;;;;;;;5009009;28;20643;-68
2022/05/11 12:57:34;;;;;;;12.45;11.55;;;;;;;;;;5010126;28;20041;-69
2022/05/11 13:00:01;;;;;;;11.45;10.57;;;;;;;;;;5007337;28;20026;-68
2022/05/11 13:02:32;;;;;;;11.77;10.77;;;;;;;;;;5007664;28;20033;-68
2022/05/11 13:05:05;;;;;;;12.40;11.50;;;;;;;;;;5012903;28;20042;-68
2022/05/11 13:07:57;;;;;;;12.40;11.38;;;;;;;;;;5008236;28;20041;-68
2022/05/11 13:10:33;;;;;;;12.30;11.23;;;;;;;;;;5009954;28;20057;-69
2022/05/11 13:13:00;;;;;;;12.75;11.63;;;;;;;;;;5013041;28;20042;-68
2022/05/11 13:15:33;;;;;;;11.88;10.85;;;;;;;;;;5007466;28;20057;-68
2022/05/11 13:17:59;;;;;;;13.07;11.90;;;;;;;;;;5008053;28;20042;-68
2022/05/11 13:20:26;;;;;;;12.35;11.43;;;;;;;;;;5008936;28;20094;-68
2022/05/11 13:22:58;;;;;;;12.10;10.82;;;;;;;;;;5016192;28;20037;-68
2022/05/11 13:25:48;;;;;;;11.32;10.43;;;;;;;;;;5022100;28;20049;-68
2022/05/11 13:28:33;;;;;;;11.32;10.52;;;;;;;;;;5003716;28;20038;-67
2022/05/11 13:31:23;;;;;;;11.90;11.00;;;;;;;;;;5006599;28;20044;-68
2022/05/11 13:33:49;;;;;;;11.43;10.25;;;;;;;;;;5006919;28;20037;-68
2022/05/11 13:36:19;;;;;;;11.65;10.55;;;;;;;;;;5007306;28;20154;-68
2022/05/11 13:38:51;;;;;;;12.50;11.40;;;;;;;;;;5010601;28;20042;-68
2022/05/11 13:41:22;;;;;;;12.15;11.07;;;;;;;;;;5006959;28;20041;-68
2022/05/11 13:43:53;;;;;;;12.35;11.32;;;;;;;;;;5004789;28;20535;-68
2022/05/11 13:49:30;;;;;;;11.60;10.68;;;;;;;;;;5009394;28;20066;-68
2022/05/11 13:51:57;;;;;;;12.40;11.32;;;;;;;;;;5007169;28;20108;-68
2022/05/11 13:54:34;;;;;;;11.98;10.98;;;;;;;;;;5016377;28;20485;-68
2022/05/11 13:57:11;;;;;;;11.80;11.00;;;;;;;;;;5014615;28;20037;-68
2022/05/11 13:59:47;;;;;;;11.48;10.52;;;;;;;;;;5005569;28;20075;-68
2022/05/11 14:02:14;;;;;;;11.55;10.68;;;;;;;;;;5007293;28;20394;-68
2022/05/11 14:04:42;;;;;;;11.85;10.82;;;;;;;;;;5005107;28;20030;-68
2022/05/11 14:07:12;;;;;;;11.52;10.55;;;;;;;;;;5006741;28;20052;-68
2022/05/11 14:09:41;;;;;;;11.45;10.23;;;;;;;;;;5011145;28;20378;-68
2022/05/11 14:12:08;;;;;;;11.43;10.38;;;;;;;;;;5012075;28;20033;-68
2022/05/11 14:14:34;;;;;;;11.20;10.50;;;;;;;;;;5006627;28;20081;-67
2022/05/11 14:17:02;;;;;;;11.40;10.43;;;;;;;;;;5007054;28;20493;-68
2022/05/11 14:19:28;;;;;;;14.75;10.48;;;;;;;;;;5016005;28;20493;-68
2022/05/11 14:21:54;;;;;;;12.95;11.23;;;;;;;;;;5006196;28;20072;-68
2022/05/11 14:24:22;;;;;;;11.98;11.00;;;;;;;;;;5016823;28;20069;-68
2022/05/11 14:26:49;;;;;;;11.13;10.32;;;;;;;;;;5013059;28;20117;-68
2022/05/11 14:29:14;;;;;;;11.45;10.60;;;;;;;;;;5003273;28;20195;-68
2022/05/11 14:31:41;;;;;;;11.27;10.27;;;;;;;;;;5014139;28;20104;-68
2022/05/11 14:34:12;;;;;;;11.50;10.52;;;;;;;;;;5006436;28;20038;-68
2022/05/11 14:36:40;;;;;;;10.93;10.13;;;;;;;;;;5011940;28;20673;-69
2022/05/11 14:39:05;;;;;;;10.68;9.88;;;;;;;;;;5009860;28;20026;-68
2022/05/11 14:41:31;;;;;;;10.65;9.85;;;;;;;;;;5005798;28;20057;-67
2022/05/11 14:43:59;;;;;;;11.30;10.32;;;;;;;;;;5005537;28;20044;-68
2022/05/11 14:46:27;;;;;;;11.13;10.43;;;;;;;;;;5010604;28;20107;-68
2022/05/11 14:48:54;;;;;;;11.25;10.48;;;;;;;;;;5010315;28;20152;-68
2022/05/11 14:51:21;;;;;;;11.60;10.85;;;;;;;;;;5006221;28;20092;-68
2022/05/11 14:53:47;;;;;;;17.63;16.20;;;;;;;;;;5005660;28;20029;-69
2022/05/11 14:56:14;;;;;;;11.40;10.40;;;;;;;;;;5008850;28;20037;-68
2022/05/11 15:04:25;;;;;;;11.00;10.05;;;;;;;;;;5010232;28;20042;-68
2022/05/11 15:06:51;;;;;;;10.82;10.13;;;;;;;;;;5005969;28;20556;-68
2022/05/11 15:09:16;;;;;;;11.35;10.55;;;;;;;;;;5004944;28;20048;-68
2022/05/11 15:14:28;;;;;;;10.73;9.93;;;;;;;;;;5006085;28;20038;-67
2022/05/11 15:16:57;;;;;;;11.23;10.32;;;;;;;;;;5006024;28;20100;-68
2022/05/11 15:19:23;;;;;;;13.98;10.00;;;;;;;;;;5005095;28;20036;-68
2022/05/11 15:21:49;;;;;;;11.02;10.25;;;;;;;;;;5012449;28;20041;-68
2022/05/11 15:24:15;;;;;;;11.80;10.80;;;;;;;;;;5017454;28;20121;-68
2022/05/11 15:26:41;;;;;;;11.85;10.77;;;;;;;;;;5010820;28;20445;-67
2022/05/11 15:29:07;;;;;;;11.32;10.63;;;;;;;;;;5005418;28;20064;-68